Appin, United Kingdom
Current Conditions -  °F | °C
As of 5:20 AM on Tuesday 27 Jan 2015 (Local Time) from EGPU Reporting Station
Broken Clouds Broken Clouds  
Wind Chill: 40°   Ceiling: 2100
Heat Index: 46°   Visibility: 6mi
Dew Point: 43°   Wind: 15mph
Humidity: 87%   Direction: 270°W
Pressure: 30.18"   Gusts: NA
Location:  56.54°N, 5.37°W
Report Text: EGPU 270520Z AUTO 27013KT 9999 FEW013/// BKN021/// 08/06 Q1022
Loading
Personal Weather Stations






























Interactive Weather Map New forecast layout! Learn more

10-Day Weather Forecast

Advertisements
Track Severe Weather on mobile